createdAt,value
2016-02-03T13:12:48.430Z,5.33
2016-02-03T13:13:48.370Z,5.33
2016-02-03T13:14:48.374Z,5.38
2016-02-03T13:15:48.376Z,5.33
2016-02-03T13:16:48.347Z,5.39
2016-02-03T13:17:48.334Z,5.44
2016-02-03T13:18:48.325Z,5.47
2016-02-03T13:19:48.327Z,5.5
2016-02-03T13:20:48.346Z,5.48
2016-02-03T13:21:48.321Z,5.56
2016-02-03T13:22:48.324Z,5.61
2016-02-03T13:23:48.294Z,5.68
2016-02-03T13:24:48.297Z,5.79
2016-02-03T13:25:48.284Z,5.79
2016-02-03T13:26:48.290Z,5.84
2016-02-03T13:27:48.292Z,5.98
2016-02-03T13:28:48.281Z,6.27
2016-02-03T13:29:48.283Z,6.41
2016-02-03T13:30:48.271Z,6.45
2016-02-03T13:31:48.273Z,6.42
2016-02-03T13:32:48.308Z,6.48
2016-02-03T13:33:48.281Z,6.41
2016-02-03T13:34:48.268Z,6.42
2016-02-03T13:35:48.286Z,6.42
2016-02-03T13:36:48.306Z,6.49
2016-02-03T13:37:48.292Z,6.51
2016-02-03T13:38:48.295Z,6.51
2016-02-03T13:39:48.313Z,6.56
2016-02-03T13:40:48.272Z,6.67
2016-02-03T13:41:48.305Z,6.7
2016-02-03T13:42:48.294Z,6.7
2016-02-03T13:43:48.280Z,6.69
2016-02-03T13:44:48.283Z,6.75
2016-02-03T13:45:48.317Z,6.87
2016-02-03T13:46:48.336Z,6.88
2016-02-03T13:47:48.308Z,6.92
2016-02-03T13:48:48.295Z,6.89
2016-02-03T13:49:48.282Z,6.89
2016-02-03T13:50:48.270Z,6.84
2016-02-03T13:51:48.162Z,7.03
2016-02-03T13:52:48.309Z,7.05
2016-02-03T13:53:48.373Z,7.05
2016-02-03T13:54:48.298Z,7.03
2016-02-03T13:55:48.285Z,7.1
2016-02-03T13:56:48.316Z,7.02
2016-02-03T13:57:48.304Z,7.14
2016-02-03T13:58:48.292Z,7.15
2016-02-03T13:59:48.294Z,7.25
2016-02-03T14:00:48.285Z,7.33
2016-02-03T14:01:48.303Z,7.39
2016-02-03T14:02:48.291Z,7.39
2016-02-03T14:03:48.293Z,7.47
2016-02-03T14:04:48.297Z,7.48
2016-02-03T14:05:48.315Z,7.48
2016-02-03T14:06:48.302Z,7.5
2016-02-03T14:07:48.304Z,7.42
2016-02-03T14:08:48.323Z,7.31
2016-02-03T14:09:48.326Z,7.29
2016-02-03T14:10:48.312Z,7.25
2016-02-03T14:11:48.315Z,7.32
2016-02-03T14:12:48.321Z,7.32
2016-02-03T14:13:48.339Z,7.35
2016-02-03T14:14:48.357Z,7.36
2016-02-03T14:15:48.345Z,7.35
2016-02-03T14:16:48.347Z,7.29
2016-02-03T14:17:48.350Z,7.28
2016-02-03T14:18:48.338Z,7.21
2016-02-03T14:19:48.340Z,7.25
2016-02-03T14:20:48.359Z,7.23
2016-02-03T14:21:48.330Z,7.1
2016-02-03T14:22:48.332Z,7.1
2016-02-03T14:23:48.382Z,7.03
2016-02-03T14:24:48.355Z,7.03
2016-02-03T14:25:48.341Z,6.85
2016-02-03T14:26:48.329Z,6.88
2016-02-03T14:27:48.362Z,6.79
2016-02-03T14:28:48.366Z,6.56
2016-02-03T14:29:48.359Z,6.38
2016-02-03T14:30:48.347Z,6.19
2016-02-03T14:31:48.350Z,5.99
2016-02-03T14:32:48.338Z,5.87
2016-02-03T14:33:48.371Z,5.68
2016-02-03T14:34:48.343Z,5.47
2016-02-03T14:35:48.377Z,5.33
2016-02-03T14:36:48.334Z,5.32
2016-02-03T14:37:48.353Z,5.05
2016-02-03T14:38:48.340Z,4.99
2016-02-03T14:39:48.359Z,4.84
2016-02-03T14:40:48.361Z,4.74
2016-02-03T14:41:48.333Z,4.62
2016-02-03T14:42:48.351Z,4.67
2016-02-03T14:43:48.339Z,4.58
2016-02-03T14:44:48.343Z,4.55
2016-02-03T14:45:48.345Z,4.53
2016-02-03T14:46:48.378Z,4.49
2016-02-03T14:47:48.350Z,4.44
2016-02-03T14:48:48.321Z,4.52
2016-02-03T14:49:48.356Z,4.48
2016-02-03T14:50:48.358Z,4.52
2016-02-03T14:51:48.361Z,4.44
2016-02-03T14:52:48.317Z,4.4
2016-02-03T14:53:48.334Z,4.4
2016-02-03T14:54:48.323Z,4.4
2016-02-03T14:55:48.328Z,4.4
2016-02-03T14:56:48.330Z,4.35
2016-02-03T14:57:48.333Z,4.32
2016-02-03T14:58:48.351Z,4.48
2016-02-03T14:59:48.339Z,4.37
2016-02-03T15:00:48.342Z,4.38
2016-02-03T15:01:48.329Z,4.41
2016-02-03T15:02:48.284Z,4.41
2016-02-03T15:03:48.352Z,4.48
2016-02-03T15:04:48.291Z,4.5
2016-02-03T15:05:48.294Z,4.58
2016-02-03T15:06:48.280Z,4.5
2016-02-03T15:07:48.520Z,4.49
2016-02-03T15:08:48.320Z,4.52
2016-02-03T15:09:48.823Z,4.44
2016-02-03T15:10:48.309Z,4.49
2016-02-03T15:11:48.281Z,4.48
2016-02-03T15:12:48.799Z,4.52
2016-02-03T15:13:48.303Z,4.52
2016-02-03T15:14:48.274Z,4.55
2016-02-03T15:15:48.278Z,4.49
2016-02-03T15:16:48.282Z,4.6
2016-02-03T15:17:48.643Z,4.48
2016-02-03T15:18:48.284Z,4.63
2016-02-03T15:19:48.305Z,4.6
2016-02-03T15:20:49.042Z,4.63
2016-02-03T15:21:48.263Z,4.68
2016-02-03T15:22:48.250Z,4.66
2016-02-03T15:23:48.283Z,4.77
2016-02-03T15:24:48.115Z,4.7
2016-02-03T15:25:48.258Z,4.68
2016-02-03T15:26:48.292Z,4.75
2016-02-03T15:27:48.247Z,4.8
2016-02-03T15:28:48.297Z,4.77
2016-02-03T15:29:48.253Z,4.87
2016-02-03T15:30:48.240Z,4.8
2016-02-03T15:31:49.853Z,4.78
2016-02-03T15:32:48.293Z,4.78
2016-02-03T15:33:48.248Z,4.86
2016-02-03T15:34:48.235Z,4.86
2016-02-03T15:35:48.238Z,4.89
2016-02-03T15:36:48.257Z,4.97
2016-02-03T15:37:48.244Z,5.02
2016-02-03T15:38:48.232Z,5.1
2016-02-03T15:39:48.235Z,5.11
2016-02-03T15:40:49.565Z,5.07
2016-02-03T15:41:48.224Z,5.15
2016-02-03T15:42:48.243Z,5.14
2016-02-03T15:43:48.246Z,5.28
2016-02-03T15:44:48.248Z,5.26
2016-02-03T15:45:48.255Z,5.26
2016-02-03T15:46:48.227Z,5.28
2016-02-03T15:47:48.293Z,5.28
2016-02-03T15:48:48.248Z,5.26
2016-02-03T15:49:48.220Z,5.25
2016-02-03T15:50:48.238Z,5.28
2016-02-03T15:51:48.209Z,5.35
2016-02-03T15:52:48.243Z,5.35
2016-02-03T15:53:48.246Z,5.41
2016-02-03T15:54:48.217Z,5.39
2016-02-03T15:55:48.220Z,5.36
2016-02-03T15:56:48.239Z,5.39
2016-02-03T15:57:48.210Z,5.35
2016-02-03T15:58:48.214Z,5.44
2016-02-03T15:59:49.169Z,5.35
2016-02-03T16:00:48.203Z,5.33
2016-02-03T16:01:48.238Z,5.33
2016-02-03T16:02:48.209Z,5.43
2016-02-03T16:03:48.212Z,5.41
2016-02-03T16:04:48.058Z,5.38
2016-02-03T16:05:48.202Z,5.43
2016-02-03T16:06:48.204Z,5.39
2016-02-03T16:07:48.223Z,5.38
2016-02-03T16:08:48.213Z,5.36
2016-02-03T16:09:50.199Z,5.36
2016-02-03T16:10:48.172Z,5.3
2016-02-03T16:11:48.142Z,5.35
2016-02-03T16:12:50.458Z,5.33
2016-02-03T16:13:47.969Z,5.39
2016-02-03T16:14:48.106Z,5.32
2016-02-03T16:15:48.118Z,5.33
2016-02-03T16:16:48.085Z,5.36
2016-02-03T16:17:48.098Z,5.35
2016-02-03T16:18:51.709Z,5.26
2016-02-03T16:19:48.084Z,5.32
2016-02-03T16:20:48.195Z,5.29
2016-02-03T16:21:48.086Z,5.25
2016-02-03T16:22:48.087Z,5.29
2016-02-03T16:23:50.639Z,5.25
2016-02-03T16:24:48.047Z,5.2
2016-02-03T16:25:48.068Z,5.18
2016-02-03T16:26:48.070Z,5.08
2016-02-03T16:27:48.071Z,5.1
2016-02-03T16:28:48.073Z,5.12
2016-02-03T16:29:48.059Z,5.07
2016-02-03T16:30:48.078Z,5.05
2016-02-03T16:31:48.065Z,4.99
2016-02-03T16:32:50.895Z,4.97
2016-02-03T16:33:48.053Z,4.97
2016-02-03T16:34:50.886Z,4.94
2016-02-03T16:35:48.059Z,4.92
2016-02-03T16:36:48.047Z,4.94
2016-02-03T16:37:48.065Z,4.86
2016-02-03T16:38:48.099Z,4.75
2016-02-03T16:39:48.070Z,4.9
2016-02-03T16:40:48.042Z,4.86
2016-02-03T16:41:48.061Z,4.82
2016-02-03T16:42:48.019Z,4.87
2016-02-03T16:43:48.053Z,4.86
2016-02-03T16:44:51.150Z,4.86
2016-02-03T16:45:48.027Z,4.86
2016-02-03T16:46:48.030Z,4.84
2016-02-03T16:47:48.081Z,4.86
2016-02-03T16:48:51.255Z,4.87
2016-02-03T16:49:49.696Z,4.84
2016-02-03T16:50:48.043Z,4.92
2016-02-03T16:51:51.296Z,4.86
2016-02-03T16:52:48.017Z,4.87
2016-02-03T16:53:48.035Z,4.77
2016-02-03T16:54:48.024Z,4.82
2016-02-03T16:55:48.008Z,4.82
2016-02-03T16:56:48.020Z,4.86
2016-02-03T16:57:47.992Z,4.86
2016-02-03T16:58:48.025Z,4.75
2016-02-03T16:59:47.981Z,4.74
2016-02-03T17:00:48.031Z,4.78
2016-02-03T17:01:48.034Z,4.77
2016-02-03T17:02:47.990Z,4.75
2016-02-03T17:03:47.992Z,4.8
2016-02-03T17:04:48.010Z,4.77
2016-02-03T17:05:47.982Z,4.66
2016-02-03T17:06:47.970Z,4.67
2016-02-03T17:07:49.848Z,4.67
2016-02-03T17:08:47.975Z,4.66
2016-02-03T17:09:47.963Z,4.73
2016-02-03T17:10:47.982Z,4.73
2016-02-03T17:11:48.031Z,4.73
2016-02-03T17:12:51.580Z,4.63
2016-02-03T17:13:47.959Z,4.66
2016-02-03T17:14:47.994Z,4.59
2016-02-03T17:15:51.622Z,4.59
2016-02-03T17:16:47.968Z,4.66
2016-02-03T17:17:47.955Z,4.58
2016-02-03T17:18:51.614Z,4.6
2016-02-03T17:19:47.975Z,4.6
2016-02-03T17:20:47.994Z,4.67
2016-02-03T17:21:47.998Z,4.7
2016-02-03T17:22:47.970Z,4.7
2016-02-03T17:23:47.941Z,4.66
2016-02-03T17:24:47.990Z,4.6
2016-02-03T17:25:47.930Z,4.6
2016-02-03T17:26:47.949Z,4.49
2016-02-03T17:27:51.842Z,4.58
2016-02-03T17:28:47.954Z,4.56
2016-02-03T17:29:47.956Z,4.48
2016-02-03T17:30:47.975Z,4.53
2016-02-03T17:31:48.009Z,4.52
2016-02-03T17:32:48.028Z,4.45
2016-02-03T17:33:47.937Z,4.49
2016-02-03T17:34:47.940Z,4.38
2016-02-03T17:35:51.928Z,4.3
2016-02-03T17:36:47.914Z,4.3
2016-02-03T17:37:50.276Z,4.28
2016-02-03T17:38:47.925Z,4.22
2016-02-03T17:39:47.927Z,4.14
2016-02-03T17:40:47.900Z,4.19
2016-02-03T17:41:47.935Z,4.2
2016-02-03T17:42:50.281Z,4.19
2016-02-03T17:43:47.971Z,4.16
2016-02-03T17:44:50.240Z,4.24
2016-02-03T17:45:47.882Z,4.3
2016-02-03T17:46:47.902Z,4.26
2016-02-03T17:47:52.138Z,4.32
2016-02-03T17:48:50.381Z,4.38
2016-02-03T17:49:47.900Z,4.4
2016-02-03T17:50:47.902Z,4.41
2016-02-03T17:51:50.389Z,4.41
2016-02-03T17:52:47.893Z,4.41
2016-02-03T17:53:47.895Z,4.41
2016-02-03T17:54:50.477Z,4.5
2016-02-03T17:55:52.291Z,4.49
2016-02-03T17:56:47.919Z,4.5
2016-02-03T17:57:47.938Z,4.5
2016-02-03T17:58:47.878Z,4.58
2016-02-03T17:59:47.880Z,4.58
2016-02-03T18:00:47.868Z,4.67
2016-02-03T18:01:47.855Z,4.73
2016-02-03T18:02:52.357Z,4.74
2016-02-03T18:03:47.876Z,4.77
2016-02-03T18:04:47.898Z,4.68
2016-02-03T18:05:47.870Z,4.75
2016-02-03T18:06:47.857Z,4.62
2016-02-03T18:07:52.734Z,4.62
2016-02-03T18:08:47.862Z,4.6
2016-02-03T18:09:47.865Z,4.56
2016-02-03T18:10:47.868Z,4.58
2016-02-03T18:11:47.855Z,4.5
2016-02-03T18:12:47.861Z,4.4
2016-02-03T18:13:52.503Z,4.38
2016-02-03T18:14:47.912Z,4.34
2016-02-03T18:15:52.525Z,4.4
2016-02-03T18:16:47.855Z,4.32
2016-02-03T18:17:47.861Z,4.34
2016-02-03T18:18:47.833Z,4.3
2016-02-03T18:19:47.868Z,4.26
2016-02-03T18:20:47.824Z,4.24
2016-02-03T18:21:52.670Z,4.28
2016-02-03T18:22:47.844Z,4.24
2016-02-03T18:23:47.941Z,4.2
2016-02-03T18:24:50.259Z,4.14
2016-02-03T18:25:47.824Z,4.28
2016-02-03T18:26:51.983Z,4.08
2016-02-03T18:27:47.829Z,4.12
2016-02-03T18:28:47.848Z,4.1
2016-02-03T18:29:47.805Z,4.1
2016-02-03T18:30:47.838Z,4.06
2016-02-03T18:31:47.827Z,4.05
2016-02-03T18:32:47.813Z,4.05
2016-02-03T18:33:47.816Z,3.92
2016-02-03T18:34:47.819Z,3.95
2016-02-03T18:35:47.821Z,4.04
2016-02-03T18:36:47.796Z,3.96
2016-02-03T18:37:54.127Z,3.95
2016-02-03T18:38:47.794Z,3.99
2016-02-03T18:39:47.812Z,4.02
2016-02-03T18:40:54.111Z,3.99
2016-02-03T18:41:51.833Z,3.87
2016-02-03T18:42:47.774Z,3.96
2016-02-03T18:43:47.776Z,3.86
2016-02-03T18:44:47.779Z,3.86
2016-02-03T18:45:47.797Z,3.92
2016-02-03T18:46:51.955Z,3.87
2016-02-03T18:47:47.788Z,3.95
2016-02-03T18:48:47.774Z,3.87
2016-02-03T18:49:47.808Z,3.84
2016-02-03T18:50:51.982Z,3.86
2016-02-03T18:51:47.751Z,3.95
2016-02-03T18:52:52.003Z,3.96
2016-02-03T18:53:47.757Z,3.94
2016-02-03T18:54:50.212Z,3.95
2016-02-03T18:55:47.762Z,3.88
2016-02-03T18:56:47.765Z,3.81
2016-02-03T18:57:47.756Z,3.83
2016-02-03T18:58:47.776Z,3.83
2016-02-03T18:59:47.763Z,3.86
2016-02-03T19:00:47.766Z,3.92
2016-02-03T19:01:47.737Z,3.84
2016-02-03T19:02:47.724Z,3.74
2016-02-03T19:03:50.321Z,3.76
2016-02-03T19:04:47.730Z,3.83
2016-02-03T19:05:50.358Z,3.74
2016-02-03T19:06:47.719Z,3.77
2016-02-03T19:07:47.722Z,3.69
2016-02-03T19:08:47.711Z,3.66
2016-02-03T19:09:52.229Z,3.66
2016-02-03T19:10:47.698Z,3.73
2016-02-03T19:11:50.403Z,3.7
2016-02-03T19:12:50.423Z,3.66
2016-02-03T19:13:47.707Z,3.7
2016-02-03T19:14:47.710Z,3.68
2016-02-03T19:15:47.698Z,3.66
2016-02-03T19:16:47.685Z,3.63
2016-02-03T19:17:47.688Z,3.66
2016-02-03T19:18:47.693Z,3.7
2016-02-03T19:19:47.665Z,3.77
2016-02-03T19:20:47.667Z,3.58
2016-02-03T19:21:47.670Z,3.63
2016-02-03T19:22:47.672Z,3.59
2016-02-03T19:23:52.507Z,3.56
2016-02-03T19:24:47.680Z,3.56
2016-02-03T19:25:52.543Z,3.5
2016-02-03T19:26:47.654Z,3.55
2016-02-03T19:27:47.676Z,3.55
2016-02-03T19:28:50.648Z,3.36
2016-02-03T19:29:52.416Z,3.53
2016-02-03T19:30:47.653Z,3.41
2016-02-03T19:31:47.640Z,3.42
2016-02-03T19:32:52.612Z,3.4
2016-02-03T19:33:47.647Z,3.37
2016-02-03T19:34:47.652Z,3.26
2016-02-03T19:35:47.654Z,3.22
2016-02-03T19:36:47.646Z,3.23
2016-02-03T19:37:47.618Z,3.26
2016-02-03T19:38:47.621Z,3.29
2016-02-03T19:39:47.625Z,3.25
2016-02-03T19:40:52.549Z,3.18
2016-02-03T19:41:47.457Z,3.28
2016-02-03T19:42:47.617Z,3.28
2016-02-03T19:43:47.604Z,3.31
2016-02-03T19:44:47.609Z,3.28
2016-02-03T19:45:47.611Z,3.18
2016-02-03T19:46:47.600Z,3.26
2016-02-03T19:47:47.589Z,3.22
2016-02-03T19:48:47.592Z,3.26
2016-02-03T19:49:47.612Z,3.28
2016-02-03T19:50:47.599Z,3.23
2016-02-03T19:51:47.603Z,3.21
2016-02-03T19:52:53.028Z,3.23
2016-02-03T19:53:47.598Z,3.28
2016-02-03T19:54:47.572Z,3.26
2016-02-03T19:55:47.559Z,3.23
2016-02-03T19:56:47.561Z,3.21
2016-02-03T19:57:47.564Z,3.26
2016-02-03T19:58:47.567Z,3.29
2016-02-03T19:59:50.523Z,3.25
2016-02-03T20:00:47.559Z,3.26
2016-02-03T20:01:47.545Z,3.26
2016-02-03T20:02:47.563Z,3.4
2016-02-03T20:03:50.504Z,3.42
2016-02-03T20:04:47.553Z,3.34
2016-02-03T20:05:47.556Z,3.4
2016-02-03T20:06:47.527Z,3.42
2016-02-03T20:07:47.530Z,3.5
2016-02-03T20:08:47.517Z,3.37
2016-02-03T20:09:47.520Z,3.42
2016-02-03T20:10:47.507Z,3.48
2016-02-03T20:11:47.510Z,3.48
2016-02-03T20:12:47.512Z,3.41
2016-02-03T20:13:47.515Z,3.48
2016-02-03T20:14:47.518Z,3.48
2016-02-03T20:15:47.521Z,3.42
2016-02-03T20:16:47.508Z,3.6
2016-02-03T20:17:47.494Z,3.56
2016-02-03T20:18:50.685Z,3.62
2016-02-03T20:19:47.487Z,3.63
2016-02-03T20:20:52.740Z,3.65
2016-02-03T20:21:47.478Z,3.62
2016-02-03T20:22:47.480Z,3.62
2016-02-03T20:23:47.499Z,3.59
2016-02-03T20:24:47.469Z,3.62
2016-02-03T20:25:47.457Z,3.59
2016-02-03T20:26:47.475Z,3.65
2016-02-03T20:27:52.853Z,3.63
2016-02-03T20:28:47.481Z,3.68
2016-02-03T20:29:47.469Z,3.78
2016-02-03T20:30:47.456Z,3.73
2016-02-03T20:31:47.459Z,3.68
2016-02-03T20:32:47.445Z,3.65
2016-02-03T20:33:47.450Z,3.68
2016-02-03T20:34:47.671Z,3.77
2016-02-03T20:35:47.470Z,3.76
2016-02-03T20:36:47.442Z,3.76
2016-02-03T20:37:47.976Z,3.73
2016-02-03T20:38:47.917Z,3.73
2016-02-03T20:39:53.060Z,3.74
2016-02-03T20:40:47.438Z,3.78
2016-02-03T20:41:47.471Z,3.76
2016-02-03T20:42:53.037Z,3.78
2016-02-03T20:43:47.416Z,3.84
2016-02-03T20:44:47.262Z,3.87
2016-02-03T20:45:47.405Z,3.94
2016-02-03T20:46:47.408Z,3.88
2016-02-03T20:47:51.535Z,3.92
2016-02-03T20:48:47.410Z,3.95
2016-02-03T20:49:47.413Z,3.95
2016-02-03T20:50:47.416Z,3.94
2016-02-03T20:51:47.264Z,4.01
2016-02-03T20:52:51.362Z,3.96
2016-02-03T20:53:47.395Z,3.96
2016-02-03T20:54:47.414Z,3.98
2016-02-03T20:55:47.401Z,3.96
2016-02-03T20:56:47.388Z,3.96
2016-02-03T20:57:51.422Z,3.99
2016-02-03T20:58:47.409Z,3.94
2016-02-03T20:59:47.396Z,3.96
2016-02-03T21:00:49.742Z,3.84
2016-02-03T21:01:47.386Z,3.94
2016-02-03T21:02:47.373Z,3.86
2016-02-03T21:03:47.376Z,3.92
2016-02-03T21:04:47.379Z,3.81
2016-02-03T21:05:47.382Z,4.02
2016-02-03T21:06:47.384Z,3.84
2016-02-03T21:07:47.747Z,3.92
2016-02-03T21:08:47.359Z,3.92
2016-02-03T21:09:47.362Z,3.98
2016-02-03T21:10:47.364Z,3.95
2016-02-03T21:11:47.335Z,4.01
2016-02-03T21:12:47.338Z,3.96
2016-02-03T21:13:47.343Z,3.98
2016-02-03T21:14:47.345Z,3.96
2016-02-03T21:15:47.379Z,3.95
2016-02-03T21:16:47.350Z,3.98
2016-02-03T21:17:47.337Z,4.02
2016-02-03T21:18:49.918Z,4.08
2016-02-03T21:19:47.346Z,4.04
2016-02-03T21:20:47.332Z,4.01
2016-02-03T21:21:47.337Z,4.12
2016-02-03T21:22:47.325Z,4.04
2016-02-03T21:23:47.343Z,4.12
2016-02-03T21:24:47.331Z,4.14
2016-02-03T21:25:47.318Z,3.98
2016-02-03T21:26:47.320Z,4.12
2016-02-03T21:27:47.307Z,4.04
2016-02-03T21:28:47.310Z,4.1
2016-02-03T21:29:47.312Z,4.1
2016-02-03T21:30:47.331Z,4.05
2016-02-03T21:31:47.318Z,4.04
2016-02-03T21:32:47.290Z,4.06
2016-02-03T21:33:47.308Z,4.05
2016-02-03T21:34:51.687Z,3.96
2016-02-03T21:35:51.752Z,3.99
2016-02-03T21:36:47.301Z,3.95
2016-02-03T21:37:47.320Z,3.94
2016-02-03T21:38:47.290Z,3.96
2016-02-03T21:39:51.747Z,3.99
2016-02-03T21:40:47.296Z,3.95
2016-02-03T21:41:47.300Z,3.86
2016-02-03T21:42:47.272Z,3.98
2016-02-03T21:43:47.306Z,3.81
2016-02-03T21:44:47.278Z,3.84
2016-02-03T21:45:47.265Z,3.87
2016-02-03T21:46:47.269Z,3.81
2016-02-03T21:47:51.943Z,3.87
2016-02-03T21:48:49.884Z,3.86
2016-02-03T21:49:49.886Z,3.84
2016-02-03T21:50:47.281Z,3.83
2016-02-03T21:51:51.911Z,3.88
2016-02-03T21:52:51.914Z,3.88
2016-02-03T21:53:47.247Z,3.84
2016-02-03T21:54:47.251Z,3.81
2016-02-03T21:55:47.269Z,3.81
2016-02-03T21:56:47.257Z,3.88
2016-02-03T21:57:47.228Z,3.88
2016-02-03T21:58:47.247Z,3.88
2016-02-03T21:59:47.234Z,3.86
2016-02-03T22:00:51.892Z,3.84
2016-02-03T22:01:47.224Z,3.88
2016-02-03T22:02:47.211Z,3.94
2016-02-03T22:03:54.697Z,3.87
2016-02-03T22:04:47.232Z,3.96
2016-02-03T22:05:47.224Z,3.94
2016-02-03T22:06:47.211Z,3.98
2016-02-03T22:07:47.199Z,3.91
2016-02-03T22:08:47.201Z,3.94
2016-02-03T22:09:51.844Z,3.91
2016-02-03T22:10:47.237Z,3.91
2016-02-03T22:11:47.190Z,3.94
2016-02-03T22:12:47.193Z,3.94
2016-02-03T22:13:51.932Z,3.81
2016-02-03T22:14:47.182Z,3.81
2016-02-03T22:15:47.201Z,3.87
2016-02-03T22:16:47.188Z,3.81
2016-02-03T22:17:47.160Z,3.84
2016-02-03T22:18:47.178Z,3.84
2016-02-03T22:19:47.165Z,3.87
2016-02-03T22:20:47.013Z,3.94
2016-02-03T22:21:47.172Z,3.81
2016-02-03T22:22:47.159Z,3.77
2016-02-03T22:23:47.162Z,3.87
2016-02-03T22:24:47.180Z,3.83
2016-02-03T22:25:47.168Z,3.83
2016-02-03T22:26:47.171Z,3.88
2016-02-03T22:27:47.142Z,3.81
2016-02-03T22:28:47.145Z,3.78
2016-02-03T22:29:47.164Z,3.8
2016-02-03T22:30:47.168Z,3.81
2016-02-03T22:31:47.171Z,3.86
2016-02-03T22:32:47.144Z,3.77
2016-02-03T22:33:47.132Z,3.77
2016-02-03T22:34:47.135Z,3.8
2016-02-03T22:35:47.138Z,3.8
2016-02-03T22:36:47.140Z,3.78
2016-02-03T22:37:47.113Z,3.8
2016-02-03T22:38:52.412Z,3.78
2016-02-03T22:39:47.118Z,3.81
2016-02-03T22:40:47.121Z,3.8
2016-02-03T22:41:47.124Z,3.8
2016-02-03T22:42:47.116Z,3.83
2016-02-03T22:43:47.102Z,3.81
2016-02-03T22:44:47.107Z,3.81
2016-02-03T22:45:47.110Z,3.83
2016-02-03T22:46:47.113Z,3.81
2016-02-03T22:47:47.115Z,3.83
2016-02-03T22:48:47.134Z,3.78
2016-02-03T22:49:47.103Z,3.81
2016-02-03T22:50:47.181Z,3.83
2016-02-03T22:51:48.324Z,3.81
2016-02-03T22:52:52.606Z,3.87
2016-02-03T22:53:56.271Z,3.84
2016-02-03T22:54:55.164Z,3.7
2016-02-03T22:55:47.105Z,3.73
2016-02-03T22:56:47.263Z,3.83
2016-02-03T22:57:47.172Z,3.84
2016-02-03T22:58:52.644Z,3.78
2016-02-03T22:59:47.133Z,3.76
2016-02-03T23:00:52.698Z,3.73
2016-02-03T23:01:47.059Z,3.7
2016-02-03T23:02:47.109Z,3.78
2016-02-03T23:03:47.064Z,3.77
2016-02-03T23:04:47.093Z,3.63
2016-02-03T23:05:47.066Z,3.74
2016-02-03T23:06:47.068Z,3.63
2016-02-03T23:07:47.039Z,3.66
2016-02-03T23:08:47.058Z,3.66
2016-02-03T23:09:47.061Z,3.65
2016-02-03T23:10:47.033Z,3.58
2016-02-03T23:11:52.910Z,3.59
2016-02-03T23:12:52.835Z,3.56
2016-02-03T23:13:47.025Z,3.48
2016-02-03T23:14:47.043Z,3.51
2016-02-03T23:15:47.014Z,3.53
2016-02-03T23:16:47.035Z,3.48
2016-02-03T23:17:47.040Z,3.5
2016-02-03T23:18:46.996Z,3.48
2016-02-03T23:19:47.029Z,3.55
2016-02-03T23:20:47.032Z,3.41
2016-02-03T23:21:47.036Z,3.41
2016-02-03T23:22:47.023Z,3.44
2016-02-03T23:23:46.994Z,3.44
2016-02-03T23:24:52.997Z,3.44
2016-02-03T23:25:47.031Z,3.4
2016-02-03T23:26:47.034Z,3.37
2016-02-03T23:27:47.005Z,3.37
2016-02-03T23:28:46.979Z,3.34
2016-02-03T23:29:47.029Z,3.23
2016-02-03T23:30:46.985Z,3.31
2016-02-03T23:31:47.018Z,3.23
2016-02-03T23:32:53.115Z,3.21
2016-02-03T23:33:46.959Z,3.21
2016-02-03T23:34:46.994Z,3.23
2016-02-03T23:35:46.980Z,3.16
2016-02-03T23:36:46.999Z,3.22
2016-02-03T23:37:46.955Z,3.23
2016-02-03T23:38:46.958Z,3.23
2016-02-03T23:39:46.914Z,3.13
2016-02-03T23:40:46.917Z,3.1
2016-02-03T23:41:46.936Z,3.28
2016-02-03T23:42:46.939Z,3.26
2016-02-03T23:43:46.926Z,3.25
2016-02-03T23:44:46.913Z,3.23
2016-02-03T23:45:46.931Z,3.23
2016-02-03T23:46:46.938Z,3.26
2016-02-03T23:47:46.893Z,3.18
2016-02-03T23:48:46.929Z,3.21
2016-02-03T23:49:46.947Z,3.37
2016-02-03T23:50:46.949Z,3.36
2016-02-03T23:51:46.905Z,3.37
2016-02-03T23:52:51.001Z,3.48
2016-02-03T23:53:46.883Z,3.47
2016-02-03T23:54:51.088Z,3.45
2016-02-03T23:55:46.904Z,3.47
2016-02-03T23:56:46.891Z,3.55
2016-02-03T23:57:46.909Z,3.5
2016-02-03T23:58:53.537Z,3.45
2016-02-03T23:59:46.868Z,3.58
